createdAt,value
2019-05-13T00:02:04.531Z,6.96
2019-05-13T00:04:33.900Z,6.88
2019-05-13T00:07:04.408Z,6.78
2019-05-13T00:09:33.952Z,6.81
2019-05-13T00:12:04.642Z,6.73
2019-05-13T00:14:34.480Z,6.74
2019-05-13T00:17:04.205Z,6.75
2019-05-13T00:19:33.866Z,6.69
2019-05-13T00:22:03.755Z,6.68
2019-05-13T00:24:33.859Z,6.57
2019-05-13T00:27:03.874Z,6.55
2019-05-13T00:29:34.109Z,6.63
2019-05-13T00:32:04.727Z,6.51
2019-05-13T00:34:33.799Z,6.58
2019-05-13T00:37:08.796Z,6.44
2019-05-13T00:39:33.628Z,6.52
2019-05-13T00:42:04.081Z,6.50
2019-05-13T00:44:33.828Z,6.41
2019-05-13T00:47:04.508Z,6.42
2019-05-13T00:49:34.592Z,6.28
2019-05-13T00:52:03.875Z,6.19
2019-05-13T00:54:34.171Z,6.13
2019-05-13T00:57:04.125Z,6.18
2019-05-13T00:59:33.823Z,6.02
2019-05-13T01:02:03.658Z,6.00
2019-05-13T01:04:33.929Z,5.98
2019-05-13T01:07:04.369Z,5.94
2019-05-13T01:09:34.277Z,5.97
2019-05-13T01:12:04.308Z,5.96
2019-05-13T01:14:34.170Z,5.90
2019-05-13T01:17:03.922Z,5.93
2019-05-13T01:19:34.205Z,5.87
2019-05-13T01:22:03.418Z,5.77
2019-05-13T01:24:33.668Z,5.78
2019-05-13T01:27:03.847Z,5.60
2019-05-13T01:29:34.376Z,5.64
2019-05-13T01:32:04.557Z,5.76
2019-05-13T01:34:33.948Z,5.77
2019-05-13T01:37:04.219Z,5.81
2019-05-13T01:39:34.988Z,5.75
2019-05-13T01:42:03.661Z,5.75
2019-05-13T01:44:33.505Z,5.63
2019-05-13T01:47:04.245Z,5.62
2019-05-13T01:49:33.704Z,5.67
2019-05-13T01:52:03.804Z,5.61
2019-05-13T01:54:33.840Z,5.60
2019-05-13T01:57:04.417Z,5.50
2019-05-13T01:59:34.623Z,5.50
2019-05-13T02:02:03.474Z,5.48
2019-05-13T02:04:33.557Z,5.51
2019-05-13T02:07:04.086Z,5.51
2019-05-13T02:09:33.709Z,5.48
2019-05-13T02:12:04.592Z,5.61
2019-05-13T02:14:34.080Z,5.67
2019-05-13T02:17:04.166Z,5.68
2019-05-13T02:19:33.603Z,5.61
2019-05-13T02:22:04.007Z,5.60
2019-05-13T02:24:34.106Z,5.57
2019-05-13T02:27:03.649Z,5.52
2019-05-13T02:29:34.446Z,5.47
2019-05-13T02:32:03.057Z,5.44
2019-05-13T02:34:32.373Z,5.44
2019-05-13T02:37:03.347Z,5.37
2019-05-13T02:39:32.904Z,5.29
2019-05-13T02:42:03.441Z,5.31
2019-05-13T02:44:33.331Z,5.39
2019-05-13T02:47:03.310Z,5.41
2019-05-13T02:49:32.637Z,5.47
2019-05-13T02:52:02.778Z,5.46
2019-05-13T02:54:34.090Z,5.54
2019-05-13T02:57:03.618Z,5.57
2019-05-13T02:59:33.599Z,5.54
2019-05-13T03:02:03.619Z,5.48
2019-05-13T03:04:32.786Z,5.55
2019-05-13T03:07:02.996Z,5.50
2019-05-13T03:09:32.537Z,5.48
2019-05-13T03:12:03.976Z,5.41
2019-05-13T03:14:32.309Z,5.45
2019-05-13T03:17:03.468Z,5.45
2019-05-13T03:19:33.153Z,5.38
2019-05-13T03:22:03.070Z,5.40
2019-05-13T03:24:33.014Z,5.30
2019-05-13T03:27:02.526Z,5.17
2019-05-13T03:29:33.141Z,5.04
2019-05-13T03:32:06.782Z,4.96
2019-05-13T03:34:36.163Z,4.88
2019-05-13T03:37:06.787Z,4.83
2019-05-13T03:39:33.350Z,4.85
2019-05-13T03:42:03.427Z,4.88
2019-05-13T03:44:32.837Z,4.89
2019-05-13T03:47:04.200Z,4.89
2019-05-13T03:49:36.959Z,4.88
2019-05-13T03:52:05.486Z,4.87
2019-05-13T03:54:34.591Z,4.85
2019-05-13T03:57:03.704Z,4.85
2019-05-13T03:59:33.422Z,4.87
2019-05-13T04:02:02.942Z,4.92
2019-05-13T04:04:32.399Z,5.37
2019-05-13T04:07:02.679Z,6.35
2019-05-13T04:09:36.139Z,7.10
2019-05-13T04:12:03.146Z,7.73
2019-05-13T04:14:33.347Z,8.37
2019-05-13T04:17:03.094Z,8.41
2019-05-13T04:19:33.623Z,9.56
2019-05-13T04:22:03.052Z,10.39
2019-05-13T04:24:33.523Z,11.06
2019-05-13T04:27:03.029Z,11.58
2019-05-13T04:29:33.182Z,12.02
2019-05-13T04:32:02.405Z,11.93
2019-05-13T04:34:33.566Z,11.65
2019-05-13T04:37:02.408Z,11.69
2019-05-13T04:39:44.451Z,11.99
2019-05-13T04:42:02.277Z,12.54
2019-05-13T04:44:32.408Z,13.17
2019-05-13T04:47:03.744Z,13.48
2019-05-13T04:49:32.619Z,13.95
2019-05-13T04:52:03.281Z,13.98
2019-05-13T04:54:33.070Z,13.42
2019-05-13T04:57:02.924Z,13.30
2019-05-13T04:59:34.565Z,13.52
2019-05-13T05:02:36.636Z,12.90
2019-05-13T05:05:28.233Z,13.37
2019-05-13T05:08:32.823Z,13.28
2019-05-13T05:11:27.313Z,12.88
2019-05-13T05:14:14.049Z,12.43
2019-05-13T05:17:03.202Z,12.05
2019-05-13T05:19:58.001Z,13.05
2019-05-13T05:22:45.640Z,14.37
2019-05-13T05:25:17.109Z,13.22
2019-05-13T05:28:02.132Z,14.45
2019-05-13T05:30:58.628Z,12.57
2019-05-13T05:33:32.553Z,12.25
2019-05-13T05:36:36.787Z,13.73
2019-05-13T05:39:24.105Z,12.55
2019-05-13T05:41:55.115Z,11.90
2019-05-13T05:44:26.723Z,12.45
2019-05-13T05:46:57.602Z,11.93
2019-05-13T05:49:26.656Z,11.53
2019-05-13T05:52:06.464Z,12.30
2019-05-13T05:54:37.659Z,12.03
2019-05-13T05:57:07.208Z,13.26
2019-05-13T05:59:37.144Z,13.96
2019-05-13T06:02:11.585Z,13.21
2019-05-13T06:04:42.750Z,13.50
2019-05-13T06:07:11.563Z,13.37
2019-05-13T06:09:42.212Z,14.00
2019-05-13T06:12:12.098Z,14.18
2019-05-13T06:14:42.292Z,12.69
2019-05-13T06:17:11.514Z,11.33
2019-05-13T06:19:41.874Z,12.56
2019-05-13T06:22:12.359Z,14.02
2019-05-13T06:24:42.149Z,13.40
2019-05-13T06:27:11.846Z,14.19
2019-05-13T06:29:42.588Z,14.63
2019-05-13T06:32:19.288Z,14.38
2019-05-13T06:34:41.618Z,13.94
2019-05-13T06:37:11.421Z,14.18
2019-05-13T06:39:41.979Z,13.08
2019-05-13T06:42:11.656Z,14.82
2019-05-13T06:44:42.134Z,15.40
2019-05-13T06:47:11.601Z,15.62
2019-05-13T06:49:42.363Z,15.47
2019-05-13T06:52:12.018Z,15.85
2019-05-13T06:54:41.885Z,15.27
2019-05-13T06:57:13.370Z,14.99
2019-05-13T06:59:41.968Z,14.96
2019-05-13T07:02:12.401Z,15.00
2019-05-13T07:04:41.546Z,12.17
2019-05-13T07:07:16.135Z,13.05
2019-05-13T07:09:42.639Z,14.06
2019-05-13T07:12:11.390Z,14.58
2019-05-13T07:14:41.323Z,14.28
2019-05-13T07:17:12.129Z,13.93
2019-05-13T07:19:41.418Z,13.07
2019-05-13T07:22:11.558Z,13.83
2019-05-13T07:24:41.412Z,14.38
2019-05-13T07:27:11.966Z,12.70
2019-05-13T07:29:42.182Z,13.85
2019-05-13T07:32:11.990Z,13.42
2019-05-13T07:34:43.952Z,13.85
2019-05-13T07:37:11.422Z,13.78
2019-05-13T07:39:41.844Z,14.32
2019-05-13T07:42:12.295Z,14.46
2019-05-13T07:44:41.687Z,13.76
2019-05-13T07:47:11.661Z,13.48
2019-05-13T07:49:42.046Z,13.68
2019-05-13T07:52:11.879Z,14.57
2019-05-13T07:54:41.976Z,14.92
2019-05-13T07:57:12.243Z,14.16
2019-05-13T07:59:41.953Z,14.92
2019-05-13T08:02:12.410Z,14.18
2019-05-13T08:04:42.073Z,14.20
2019-05-13T08:07:12.025Z,13.24
2019-05-13T08:09:41.854Z,13.89
2019-05-13T08:12:14.131Z,14.35
2019-05-13T08:14:43.182Z,14.81
2019-05-13T08:17:11.631Z,14.59
2019-05-13T08:19:41.370Z,14.56
2019-05-13T08:22:11.723Z,15.13
2019-05-13T08:24:42.504Z,14.66
2019-05-13T08:27:11.774Z,14.96
2019-05-13T08:29:42.175Z,13.96
2019-05-13T08:32:11.289Z,14.88
2019-05-13T08:34:41.770Z,15.05
2019-05-13T08:37:11.368Z,15.17
2019-05-13T08:39:41.498Z,14.07
2019-05-13T08:42:16.103Z,14.11
2019-05-13T08:44:41.736Z,14.12
2019-05-13T08:47:12.080Z,14.83
2019-05-13T08:49:41.432Z,15.35
2019-05-13T08:52:12.071Z,14.70
2019-05-13T08:54:41.837Z,14.81
2019-05-13T08:57:11.815Z,14.73
2019-05-13T08:59:42.264Z,13.97
2019-05-13T09:02:11.585Z,14.68
2019-05-13T09:04:42.225Z,14.31
2019-05-13T09:07:12.128Z,14.33
2019-05-13T09:09:41.932Z,14.96
2019-05-13T09:12:11.610Z,14.75
2019-05-13T09:14:41.678Z,15.15
2019-05-13T09:17:12.085Z,14.10
2019-05-13T09:19:41.472Z,14.99
2019-05-13T09:22:12.446Z,14.17
2019-05-13T09:24:42.501Z,14.88
2019-05-13T09:27:12.053Z,14.84
2019-05-13T09:29:42.700Z,14.32
2019-05-13T09:32:12.145Z,14.02
2019-05-13T09:34:42.223Z,14.64
2019-05-13T09:37:11.889Z,15.03
2019-05-13T09:39:41.454Z,15.12
2019-05-13T09:42:12.440Z,15.42
2019-05-13T09:44:41.943Z,14.53
2019-05-13T09:47:12.458Z,14.68
2019-05-13T09:49:42.074Z,14.87
2019-05-13T09:52:11.933Z,15.19
2019-05-13T09:54:42.511Z,15.41
2019-05-13T09:57:12.093Z,15.54
2019-05-13T09:59:42.191Z,15.73
2019-05-13T10:02:12.444Z,16.39
2019-05-13T10:04:43.466Z,15.81
2019-05-13T10:07:12.411Z,16.57
2019-05-13T10:09:42.995Z,15.14
2019-05-13T10:12:12.177Z,15.29
2019-05-13T10:14:40.781Z,15.45
2019-05-13T10:17:09.210Z,15.67
2019-05-13T10:19:37.689Z,15.57
2019-05-13T10:22:06.213Z,15.23
2019-05-13T10:24:34.772Z,15.72
2019-05-13T10:27:03.396Z,15.01
2019-05-13T10:29:32.455Z,14.67
2019-05-13T10:32:02.687Z,14.63
2019-05-13T10:34:32.108Z,14.91
2019-05-13T10:37:02.170Z,14.66
2019-05-13T10:39:31.163Z,14.59
2019-05-13T10:41:59.621Z,14.80
2019-05-13T10:44:27.993Z,14.78
2019-05-13T10:46:56.429Z,15.47
2019-05-13T10:49:24.852Z,14.88
2019-05-13T10:51:53.280Z,14.87
2019-05-13T10:54:22.473Z,15.33
2019-05-13T10:56:53.121Z,16.23
2019-05-13T10:59:23.007Z,16.58
2019-05-13T11:01:51.364Z,16.15
2019-05-13T11:04:22.244Z,17.20
2019-05-13T11:06:52.561Z,16.44
2019-05-13T11:09:21.901Z,14.85
2019-05-13T11:11:52.749Z,15.38
2019-05-13T11:14:22.067Z,15.87
2019-05-13T11:16:52.381Z,16.56
2019-05-13T11:19:23.100Z,17.16
2019-05-13T11:21:51.467Z,17.50
2019-05-13T11:24:22.114Z,17.14
2019-05-13T11:26:52.338Z,17.79
2019-05-13T11:29:22.830Z,17.84
2019-05-13T11:31:52.499Z,17.92
2019-05-13T11:34:22.117Z,17.52
2019-05-13T11:36:53.374Z,16.02
2019-05-13T11:39:21.893Z,15.52
2019-05-13T11:41:50.603Z,16.00
2019-05-13T11:44:18.995Z,16.30
2019-05-13T11:46:47.456Z,16.60
2019-05-13T11:49:15.873Z,16.49
2019-05-13T11:51:44.536Z,16.74
2019-05-13T11:54:14.045Z,16.46
2019-05-13T11:56:49.374Z,17.42
2019-05-13T11:59:13.977Z,17.32
2019-05-13T12:01:42.941Z,17.82
2019-05-13T12:04:11.400Z,17.46
2019-05-13T12:06:45.928Z,17.56
2019-05-13T12:09:12.730Z,17.36
2019-05-13T12:11:40.084Z,16.94
2019-05-13T12:14:34.758Z,17.30
2019-05-13T12:16:38.679Z,16.68
2019-05-13T12:19:07.111Z,16.80
2019-05-13T12:21:41.938Z,16.94
2019-05-13T12:24:10.510Z,17.16
2019-05-13T12:26:36.119Z,17.74
2019-05-13T12:29:04.674Z,17.40
2019-05-13T12:31:33.802Z,17.31
2019-05-13T12:34:03.519Z,17.16
2019-05-13T12:36:33.049Z,17.29
2019-05-13T12:39:01.587Z,17.60
2019-05-13T12:41:33.021Z,17.08
2019-05-13T12:44:01.786Z,17.42
2019-05-13T12:46:30.323Z,17.67
2019-05-13T12:48:58.747Z,18.20
2019-05-13T12:51:27.423Z,17.35
2019-05-13T12:53:55.879Z,18.03
2019-05-13T12:56:24.293Z,17.20
2019-05-13T12:58:53.525Z,16.27
2019-05-13T13:01:23.904Z,15.96
2019-05-13T13:03:52.189Z,16.80
2019-05-13T13:06:31.249Z,15.54
2019-05-13T13:08:51.038Z,16.11
2019-05-13T13:11:22.532Z,17.61
2019-05-13T13:13:58.761Z,17.82
2019-05-13T13:16:19.890Z,16.10
2019-05-13T13:18:48.321Z,17.31
2019-05-13T13:21:16.729Z,17.94
2019-05-13T13:23:45.154Z,18.19
2019-05-13T13:26:16.021Z,18.08
2019-05-13T13:28:43.811Z,17.14
2019-05-13T13:31:13.119Z,17.48
2019-05-13T13:33:44.361Z,17.87
2019-05-13T13:36:15.609Z,18.03
2019-05-13T13:38:43.700Z,17.71
2019-05-13T13:41:22.003Z,17.60
2019-05-13T13:43:42.674Z,17.43
2019-05-13T13:46:25.452Z,17.51
2019-05-13T13:48:43.718Z,17.33
2019-05-13T13:51:13.997Z,17.30
2019-05-13T13:53:44.361Z,18.10
2019-05-13T13:56:14.387Z,18.68
2019-05-13T13:58:44.008Z,18.03
2019-05-13T14:01:20.225Z,17.88
2019-05-13T14:03:46.128Z,17.17
2019-05-13T14:06:13.376Z,18.34
2019-05-13T14:08:41.804Z,18.08
2019-05-13T14:11:11.614Z,18.66
2019-05-13T14:13:42.500Z,18.61
2019-05-13T14:16:24.564Z,18.44
2019-05-13T14:18:42.382Z,17.98
2019-05-13T14:21:14.599Z,18.20
2019-05-13T14:23:43.922Z,18.07
2019-05-13T14:26:12.349Z,17.13
2019-05-13T14:28:42.033Z,17.13
2019-05-13T14:31:10.599Z,17.84
2019-05-13T14:33:39.013Z,18.93
2019-05-13T14:36:07.432Z,19.17
2019-05-13T14:38:36.030Z,19.27
2019-05-13T14:41:08.972Z,18.96
2019-05-13T14:43:35.983Z,17.46
2019-05-13T14:46:04.401Z,17.06
2019-05-13T14:48:33.279Z,16.77
2019-05-13T14:51:02.091Z,17.89
2019-05-13T14:53:32.237Z,17.89
2019-05-13T14:56:02.939Z,16.76
2019-05-13T14:58:32.476Z,17.39
2019-05-13T15:01:14.198Z,16.00
2019-05-13T15:03:32.570Z,16.18
2019-05-13T15:06:01.604Z,17.38
2019-05-13T15:08:32.522Z,17.33
2019-05-13T15:11:01.953Z,16.90
2019-05-13T15:13:32.070Z,17.59
2019-05-13T15:16:00.919Z,17.75
2019-05-13T15:18:29.357Z,17.39
2019-05-13T15:20:58.908Z,17.32
2019-05-13T15:23:31.445Z,17.61
2019-05-13T15:25:59.148Z,16.77
2019-05-13T15:28:28.112Z,17.61
2019-05-13T15:30:56.523Z,17.37
2019-05-13T15:33:25.069Z,17.23
2019-05-13T15:35:54.907Z,17.25
2019-05-13T15:38:23.311Z,17.32
2019-05-13T15:40:52.282Z,17.72
2019-05-13T15:43:22.371Z,17.27
2019-05-13T15:45:51.412Z,17.56
2019-05-13T15:48:21.580Z,17.69
2019-05-13T15:50:51.370Z,17.08
2019-05-13T15:53:21.422Z,16.31
2019-05-13T15:55:51.689Z,16.53
2019-05-13T15:58:37.753Z,15.58
2019-05-13T16:00:52.325Z,16.56
2019-05-13T16:03:20.469Z,16.43
2019-05-13T16:05:51.492Z,16.28
2019-05-13T16:08:19.031Z,15.72
2019-05-13T16:10:47.455Z,15.98
2019-05-13T16:13:15.861Z,16.24
2019-05-13T16:15:44.302Z,16.46
2019-05-13T16:18:22.036Z,16.76
2019-05-13T16:20:51.985Z,16.39
2019-05-13T16:23:21.249Z,15.96
2019-05-13T16:25:51.980Z,16.18
2019-05-13T16:28:19.858Z,16.43
2019-05-13T16:30:48.427Z,16.15
2019-05-13T16:33:16.919Z,16.32
2019-05-13T16:35:45.381Z,16.11
2019-05-13T16:38:13.784Z,16.39
2019-05-13T16:40:42.528Z,16.26
2019-05-13T16:43:12.812Z,16.29
2019-05-13T16:45:42.333Z,16.00
2019-05-13T16:48:12.340Z,15.77
2019-05-13T16:50:41.895Z,15.67
2019-05-13T16:53:10.484Z,15.44
2019-05-13T16:55:38.903Z,15.75
2019-05-13T16:58:07.351Z,15.81
2019-05-13T17:00:35.839Z,15.78
2019-05-13T17:03:04.284Z,15.57
2019-05-13T17:05:32.800Z,15.34
2019-05-13T17:08:02.068Z,15.48
2019-05-13T17:10:31.613Z,15.42
2019-05-13T17:13:02.848Z,15.30
2019-05-13T17:15:31.246Z,15.40
2019-05-13T17:18:09.212Z,15.25
2019-05-13T17:20:31.964Z,15.35
2019-05-13T17:23:01.863Z,15.28
2019-05-13T17:25:30.388Z,15.30
2019-05-13T17:27:58.836Z,15.38
2019-05-13T17:30:27.245Z,15.19
2019-05-13T17:32:55.783Z,15.23
2019-05-13T17:35:24.425Z,15.27
2019-05-13T17:37:53.206Z,15.25
2019-05-13T17:40:22.469Z,15.48
2019-05-13T17:42:51.044Z,15.27
2019-05-13T17:45:21.846Z,15.08
2019-05-13T17:47:51.878Z,15.01
2019-05-13T17:50:22.312Z,14.83
2019-05-13T17:52:51.364Z,14.78
2019-05-13T17:55:22.086Z,14.77
2019-05-13T17:57:50.160Z,14.89
2019-05-13T18:00:18.944Z,14.85
2019-05-13T18:02:47.406Z,14.85
2019-05-13T18:05:16.602Z,14.77
2019-05-13T18:07:45.026Z,14.50
2019-05-13T18:10:14.492Z,14.41
2019-05-13T18:12:43.166Z,14.52
2019-05-13T18:15:11.676Z,14.52
2019-05-13T18:17:41.801Z,14.29
2019-05-13T18:20:10.543Z,14.17
2019-05-13T18:22:38.970Z,14.37
2019-05-13T18:25:11.787Z,14.23
2019-05-13T18:27:41.399Z,14.02
2019-05-13T18:30:11.413Z,13.97
2019-05-13T18:32:40.104Z,13.99
2019-05-13T18:35:12.059Z,13.88
2019-05-13T18:37:41.814Z,13.82
2019-05-13T18:40:11.576Z,13.69
2019-05-13T18:42:42.103Z,13.85
2019-05-13T18:45:11.812Z,13.65
2019-05-13T18:47:40.286Z,13.75
2019-05-13T18:50:11.360Z,13.69
2019-05-13T18:52:41.810Z,13.73
2019-05-13T18:55:11.949Z,13.55
2019-05-13T18:57:39.778Z,13.58
2019-05-13T19:00:11.126Z,13.41
2019-05-13T19:02:41.470Z,13.37
2019-05-13T19:05:11.979Z,13.36
2019-05-13T19:07:41.821Z,13.34
2019-05-13T19:10:11.465Z,13.28
2019-05-13T19:12:42.054Z,13.24
2019-05-13T19:15:11.382Z,13.13
2019-05-13T19:17:41.519Z,13.05
2019-05-13T19:20:11.677Z,13.05
2019-05-13T19:22:41.327Z,13.04
2019-05-13T19:25:11.873Z,12.87
2019-05-13T19:27:41.381Z,12.86
2019-05-13T19:30:12.114Z,12.81
2019-05-13T19:32:41.683Z,12.74
2019-05-13T19:35:11.644Z,12.68
2019-05-13T19:37:42.567Z,12.61
2019-05-13T19:40:13.026Z,12.57
2019-05-13T19:42:41.930Z,12.58
2019-05-13T19:45:10.715Z,12.53
2019-05-13T19:47:41.573Z,12.44
2019-05-13T19:50:09.600Z,12.33
2019-05-13T19:52:38.043Z,12.22
2019-05-13T19:55:07.322Z,12.19
2019-05-13T19:57:35.725Z,12.15
2019-05-13T20:00:10.045Z,12.08
2019-05-13T20:02:37.026Z,12.00
2019-05-13T20:05:06.367Z,11.90
2019-05-13T20:07:34.789Z,11.88
2019-05-13T20:10:03.870Z,11.83
2019-05-13T20:12:32.304Z,11.78
2019-05-13T20:15:01.443Z,11.74
2019-05-13T20:17:31.941Z,11.68
2019-05-13T20:20:02.029Z,11.63
2019-05-13T20:22:31.299Z,11.57
2019-05-13T20:24:59.828Z,11.50
2019-05-13T20:27:28.337Z,11.50
2019-05-13T20:29:57.029Z,11.42
2019-05-13T20:32:25.833Z,11.36
2019-05-13T20:34:54.302Z,11.30
2019-05-13T20:37:22.923Z,11.22
2019-05-13T20:39:51.761Z,11.14
2019-05-13T20:42:20.366Z,11.05
2019-05-13T20:44:51.334Z,10.97
2019-05-13T20:47:21.309Z,10.89
2019-05-13T20:49:59.215Z,10.81
2019-05-13T20:52:22.035Z,10.71
2019-05-13T20:54:51.141Z,10.63
2019-05-13T20:57:22.224Z,10.54
2019-05-13T20:59:51.615Z,10.49
2019-05-13T21:02:22.211Z,10.40
2019-05-13T21:04:50.836Z,10.38
2019-05-13T21:07:21.567Z,10.34
2019-05-13T21:09:51.245Z,10.28
2019-05-13T21:12:21.902Z,10.24
2019-05-13T21:14:51.203Z,10.16
2019-05-13T21:17:21.413Z,10.19
2019-05-13T21:19:52.676Z,10.21
2019-05-13T21:22:21.217Z,10.16
2019-05-13T21:24:51.520Z,10.17
2019-05-13T21:27:20.651Z,10.14
2019-05-13T21:29:49.256Z,10.02
2019-05-13T21:32:17.867Z,9.94
2019-05-13T21:34:46.333Z,9.83
2019-05-13T21:37:14.977Z,9.79
2019-05-13T21:39:43.470Z,9.88
2019-05-13T21:42:11.890Z,9.84
2019-05-13T21:44:42.014Z,9.85
2019-05-13T21:47:11.403Z,9.73
2019-05-13T21:49:42.135Z,9.74
2019-05-13T21:52:10.224Z,9.73
2019-05-13T21:54:38.631Z,9.66
2019-05-13T21:57:07.048Z,9.60
2019-05-13T21:59:35.543Z,9.53
2019-05-13T22:02:05.583Z,9.54
2019-05-13T22:04:33.997Z,9.63
2019-05-13T22:07:02.511Z,9.50
2019-05-13T22:09:31.718Z,9.47
2019-05-13T22:12:01.819Z,9.44
2019-05-13T22:14:32.004Z,9.41
2019-05-13T22:17:01.563Z,9.33
2019-05-13T22:19:31.574Z,9.16
2019-05-13T22:22:02.227Z,9.14
2019-05-13T22:24:31.301Z,9.12
2019-05-13T22:27:01.899Z,9.12
2019-05-13T22:29:32.145Z,9.00
2019-05-13T22:32:01.988Z,8.92
2019-05-13T22:34:31.906Z,8.95
2019-05-13T22:37:02.461Z,8.90
2019-05-13T22:39:34.479Z,8.92
2019-05-13T22:42:01.648Z,8.97
2019-05-13T22:44:32.265Z,8.85
2019-05-13T22:47:02.498Z,8.88
2019-05-13T22:49:31.205Z,8.75
2019-05-13T22:51:59.685Z,8.72
2019-05-13T22:54:28.270Z,8.64
2019-05-13T22:56:56.663Z,8.59
2019-05-13T22:59:25.118Z,8.48
2019-05-13T23:01:53.540Z,8.44
2019-05-13T23:04:21.955Z,8.35
2019-05-13T23:06:52.027Z,8.23
2019-05-13T23:09:21.550Z,8.26
2019-05-13T23:11:51.130Z,8.14
2019-05-13T23:14:21.843Z,8.13
2019-05-13T23:16:49.738Z,8.08
2019-05-13T23:19:18.164Z,8.02
2019-05-13T23:21:46.580Z,7.98
2019-05-13T23:24:15.017Z,8.05
2019-05-13T23:26:43.471Z,8.07
2019-05-13T23:29:11.954Z,8.02
2019-05-13T23:31:41.456Z,7.83
2019-05-13T23:34:12.021Z,7.96
2019-05-13T23:36:42.291Z,7.70
2019-05-13T23:39:11.664Z,7.74
2019-05-13T23:41:41.605Z,7.77
2019-05-13T23:44:24.156Z,7.78
2019-05-13T23:46:42.082Z,7.80
2019-05-13T23:49:11.862Z,7.78
2019-05-13T23:51:41.354Z,7.69
2019-05-13T23:54:12.100Z,7.70
2019-05-13T23:56:41.661Z,7.70
2019-05-13T23:59:11.365Z,7.67
